createdAt,value
2022-09-07T00:03:13.541Z,18.03
2022-09-07T00:08:04.044Z,17.82
2022-09-07T00:12:54.615Z,17.69
2022-09-07T00:17:44.947Z,17.68
2022-09-07T00:22:38.506Z,17.63
2022-09-07T00:27:28.612Z,17.52
2022-09-07T00:32:18.328Z,17.51
2022-09-07T00:37:08.233Z,17.52
2022-09-07T00:42:00.189Z,17.52
2022-09-07T00:46:49.647Z,17.50
2022-09-07T00:51:42.370Z,17.43
2022-09-07T00:56:39.747Z,17.49
2022-09-07T01:01:31.961Z,17.50
2022-09-07T01:06:23.565Z,17.57
2022-09-07T01:11:13.480Z,17.63
2022-09-07T01:16:08.834Z,17.72
2022-09-07T01:21:12.170Z,17.76
2022-09-07T01:26:12.733Z,17.75
2022-09-07T01:31:13.365Z,17.87
2022-09-07T01:36:09.168Z,17.73
2022-09-07T01:41:02.644Z,17.55
2022-09-07T01:45:54.259Z,17.52
2022-09-07T01:50:50.554Z,17.46
2022-09-07T01:55:44.203Z,17.34
2022-09-07T02:00:35.170Z,17.31
2022-09-07T02:05:27.761Z,17.30
2022-09-07T02:10:23.340Z,17.23
2022-09-07T02:15:14.815Z,17.27
2022-09-07T02:20:09.207Z,17.31
2022-09-07T02:25:01.144Z,17.41
2022-09-07T02:29:54.440Z,17.49
2022-09-07T02:34:44.579Z,17.59
2022-09-07T02:39:35.332Z,17.55
2022-09-07T02:44:28.431Z,17.55
2022-09-07T02:49:29.326Z,17.61
2022-09-07T02:54:27.964Z,17.60
2022-09-07T02:59:24.893Z,17.53
2022-09-07T03:04:16.410Z,17.52
2022-09-07T03:09:12.850Z,17.51
2022-09-07T03:14:14.407Z,17.54
2022-09-07T03:19:04.612Z,17.53
2022-09-07T03:23:55.013Z,17.51
2022-09-07T03:28:47.082Z,17.45
2022-09-07T03:33:36.551Z,17.39
2022-09-07T03:38:26.028Z,17.34
2022-09-07T03:43:15.420Z,17.28
2022-09-07T03:48:07.422Z,17.27
2022-09-07T03:52:56.959Z,17.16
2022-09-07T03:57:46.358Z,17.14
2022-09-07T04:02:36.351Z,17.12
2022-09-07T04:07:28.780Z,17.08
2022-09-07T04:12:18.132Z,17.06
2022-09-07T04:17:07.673Z,17.08
2022-09-07T04:21:57.140Z,17.09
2022-09-07T04:26:49.307Z,17.05
2022-09-07T04:31:39.187Z,17.03
2022-09-07T04:36:28.633Z,17.03
2022-09-07T04:41:18.785Z,17.04
2022-09-07T04:46:14.062Z,17.02
2022-09-07T04:51:07.254Z,17.01
2022-09-07T04:55:57.432Z,17.03
2022-09-07T05:00:47.190Z,16.98
2022-09-07T05:05:41.814Z,16.96
2022-09-07T05:10:31.382Z,16.92
2022-09-07T05:15:20.770Z,16.95
2022-09-07T05:20:18.408Z,16.95
2022-09-07T05:25:13.276Z,16.96
2022-09-07T05:30:03.863Z,16.89
2022-09-07T05:34:55.192Z,16.87
2022-09-07T05:39:45.296Z,16.81
2022-09-07T05:44:45.733Z,16.84
2022-09-07T05:49:36.177Z,16.81
2022-09-07T05:54:26.896Z,16.79
2022-09-07T05:59:16.452Z,16.78
2022-09-07T06:04:08.917Z,16.77
2022-09-07T06:08:59.063Z,16.76
2022-09-07T06:13:48.694Z,16.78
2022-09-07T06:18:39.765Z,16.82
2022-09-07T06:23:32.595Z,16.79
2022-09-07T06:28:22.413Z,16.80
2022-09-07T06:33:11.939Z,16.83
2022-09-07T06:38:01.278Z,16.82
2022-09-07T06:42:53.392Z,16.80
2022-09-07T06:47:43.159Z,16.79
2022-09-07T06:57:42.547Z,16.86
2022-09-07T07:02:35.240Z,16.95
2022-09-07T07:07:24.813Z,16.99
2022-09-07T07:17:07.057Z,17.13
2022-09-07T07:27:10.886Z,17.26
2022-09-07T07:32:01.480Z,17.26
2022-09-07T07:36:50.991Z,17.34
2022-09-07T07:42:03.065Z,17.40
2022-09-07T07:46:56.672Z,17.48
2022-09-07T07:57:00.236Z,17.70
2022-09-07T08:01:50.738Z,17.77
2022-09-07T08:06:45.487Z,17.90
2022-09-07T08:11:36.064Z,17.95
2022-09-07T08:16:29.997Z,17.99
2022-09-07T08:21:20.649Z,18.07
2022-09-07T08:26:11.208Z,18.08
2022-09-07T08:31:02.465Z,18.19
2022-09-07T08:36:03.086Z,18.43
2022-09-07T08:40:54.170Z,18.61
2022-09-07T08:45:46.468Z,18.84
2022-09-07T08:50:39.701Z,19.05
2022-09-07T08:55:33.083Z,19.27
2022-09-07T09:00:23.137Z,19.39
2022-09-07T09:05:18.852Z,19.55
2022-09-07T09:10:19.639Z,19.68
2022-09-07T09:15:21.245Z,19.87
2022-09-07T09:20:19.798Z,20.16
2022-09-07T09:25:19.347Z,20.30
2022-09-07T09:30:14.999Z,20.52
2022-09-07T09:35:16.073Z,20.87
2022-09-07T09:40:07.226Z,21.13
2022-09-07T09:44:57.701Z,21.29
2022-09-07T09:49:48.089Z,21.56
2022-09-07T09:54:42.352Z,21.81
2022-09-07T10:04:44.359Z,22.35
2022-09-07T10:09:38.225Z,22.45
2022-09-07T10:14:32.784Z,22.70
2022-09-07T10:19:27.748Z,22.85
2022-09-07T10:24:18.888Z,22.98
2022-09-07T10:29:19.328Z,22.98
2022-09-07T10:34:32.791Z,23.07
2022-09-07T10:39:28.365Z,23.14
2022-09-07T10:44:25.151Z,23.40
2022-09-07T10:49:27.563Z,23.45
2022-09-07T10:54:30.380Z,23.57
2022-09-07T11:04:59.232Z,24.03
2022-09-07T11:10:01.563Z,24.16
2022-09-07T11:14:56.762Z,24.18
2022-09-07T11:19:56.600Z,24.07
2022-09-07T11:30:09.266Z,24.33
2022-09-07T11:35:08.835Z,24.30
2022-09-07T11:40:04.532Z,24.56
2022-09-07T11:45:00.614Z,24.72
2022-09-07T11:49:59.186Z,24.75
2022-09-07T11:54:58.752Z,24.75
2022-09-07T12:00:00.964Z,24.93
2022-09-07T12:05:14.292Z,25.01
2022-09-07T12:10:46.929Z,25.08
2022-09-07T12:15:47.523Z,25.13
2022-09-07T12:20:49.401Z,25.16
2022-09-07T12:25:42.604Z,25.22
2022-09-07T12:31:02.375Z,25.22
2022-09-07T12:35:55.200Z,24.94
2022-09-07T12:41:03.752Z,24.71
2022-09-07T12:45:57.215Z,24.64
2022-09-07T12:50:59.322Z,24.56
2022-09-07T12:56:18.913Z,24.47
2022-09-07T13:01:25.517Z,24.43
2022-09-07T13:11:40.647Z,24.52
2022-09-07T13:21:58.970Z,24.47
2022-09-07T13:27:00.556Z,24.56
2022-09-07T13:32:07.989Z,24.66
2022-09-07T13:36:58.896Z,24.78
2022-09-07T13:41:54.188Z,24.77
2022-09-07T13:46:53.826Z,24.76
2022-09-07T13:51:54.740Z,24.78
2022-09-07T13:56:56.345Z,24.78
2022-09-07T14:01:50.119Z,24.67
2022-09-07T14:06:41.836Z,24.54
2022-09-07T14:11:43.486Z,24.37
2022-09-07T14:16:34.380Z,24.33
2022-09-07T14:21:25.537Z,24.32
2022-09-07T14:26:20.254Z,24.25
2022-09-07T14:31:18.272Z,24.20
2022-09-07T14:36:36.316Z,24.38
2022-09-07T14:41:28.684Z,24.44
2022-09-07T14:46:26.999Z,24.36
2022-09-07T14:51:35.260Z,24.31
2022-09-07T14:56:34.766Z,24.26
2022-09-07T15:01:38.345Z,24.36
2022-09-07T15:12:06.928Z,24.53
2022-09-07T15:22:17.676Z,24.39
2022-09-07T15:27:22.219Z,24.31
2022-09-07T15:32:16.851Z,24.19
2022-09-07T15:47:51.705Z,24.01
2022-09-07T15:52:42.740Z,24.02
2022-09-07T15:58:05.183Z,23.96
2022-09-07T16:03:07.084Z,23.92
2022-09-07T16:13:16.221Z,24.00
2022-09-07T16:18:16.590Z,24.03
2022-09-07T16:23:15.534Z,24.07
2022-09-07T16:28:08.657Z,24.01
2022-09-07T16:32:58.965Z,24.00
2022-09-07T16:43:01.715Z,23.83
2022-09-07T16:47:51.390Z,23.86
2022-09-07T16:52:42.161Z,23.84
2022-09-07T16:58:35.430Z,23.73
2022-09-07T17:02:45.525Z,23.71
2022-09-07T17:07:36.252Z,23.63
2022-09-07T17:12:27.128Z,23.55
2022-09-07T17:17:22.657Z,23.55
2022-09-07T17:22:12.517Z,23.53
2022-09-07T17:27:03.671Z,23.50
2022-09-07T17:37:07.083Z,23.42
2022-09-07T17:41:57.096Z,23.39
2022-09-07T17:46:48.246Z,23.36
2022-09-07T17:51:39.036Z,23.29
2022-09-07T17:56:32.375Z,23.31
2022-09-07T18:01:25.082Z,23.20
2022-09-07T18:06:17.036Z,23.10
2022-09-07T18:16:25.774Z,22.79
2022-09-07T18:21:17.342Z,22.68
2022-09-07T18:26:09.046Z,22.56
2022-09-07T18:30:59.081Z,22.44
2022-09-07T18:35:52.222Z,22.18
2022-09-07T18:40:43.784Z,22.09
2022-09-07T18:45:35.369Z,21.98
2022-09-07T18:50:26.483Z,22.00
2022-09-07T18:55:23.946Z,21.99
2022-09-07T19:00:17.915Z,21.94
2022-09-07T19:10:23.422Z,21.92
2022-09-07T19:15:14.429Z,21.97
2022-09-07T19:20:05.961Z,21.97
2022-09-07T19:24:56.255Z,22.03
2022-09-07T19:29:52.408Z,22.06
2022-09-07T19:34:44.919Z,22.06
2022-09-07T19:39:35.571Z,22.03
2022-09-07T19:44:26.037Z,22.00
2022-09-07T19:49:19.359Z,22.02
2022-09-07T19:54:11.011Z,21.99
2022-09-07T19:59:01.660Z,21.89
2022-09-07T20:03:58.574Z,21.86
2022-09-07T20:08:51.753Z,21.81
2022-09-07T20:13:49.582Z,21.72
2022-09-07T20:18:40.283Z,21.67
2022-09-07T20:23:34.249Z,21.65
2022-09-07T20:28:27.413Z,21.62
2022-09-07T20:33:17.899Z,21.59
2022-09-07T20:38:08.144Z,21.54
2022-09-07T20:42:58.899Z,21.48
2022-09-07T20:47:51.841Z,21.43
2022-09-07T20:52:41.906Z,21.38
2022-09-07T20:57:32.340Z,21.35
2022-09-07T21:02:22.498Z,21.24
2022-09-07T21:07:15.499Z,21.18
2022-09-07T21:12:05.315Z,21.10
2022-09-07T21:16:55.512Z,21.04
2022-09-07T21:21:46.500Z,20.99
2022-09-07T21:26:39.410Z,20.99
2022-09-07T21:31:30.216Z,21.01
2022-09-07T21:36:20.346Z,21.04
2022-09-07T21:41:10.423Z,21.05
2022-09-07T21:46:08.229Z,21.05
2022-09-07T21:50:59.560Z,21.06
2022-09-07T21:55:57.540Z,20.97
2022-09-07T22:00:48.031Z,20.93
2022-09-07T22:05:42.131Z,20.91
2022-09-07T22:10:32.373Z,20.91
2022-09-07T22:15:22.625Z,20.87
2022-09-07T22:20:13.369Z,20.86
2022-09-07T22:25:06.488Z,20.84
2022-09-07T22:29:57.137Z,20.83
2022-09-07T22:34:47.191Z,20.81
2022-09-07T22:39:37.697Z,20.75
2022-09-07T22:44:30.686Z,20.65
2022-09-07T22:49:21.166Z,20.64
2022-09-07T22:54:13.440Z,20.58
2022-09-07T22:59:04.187Z,20.56
2022-09-07T23:03:57.446Z,20.48
2022-09-07T23:08:47.538Z,20.41
2022-09-07T23:13:37.880Z,20.36
2022-09-07T23:18:28.093Z,20.34
2022-09-07T23:23:21.106Z,20.28
2022-09-07T23:28:13.791Z,20.20
2022-09-07T23:33:03.408Z,20.21
2022-09-07T23:37:53.359Z,20.20
2022-09-07T23:42:46.005Z,20.13
2022-09-07T23:47:36.148Z,20.08
2022-09-07T23:52:26.936Z,20.06
2022-09-07T23:57:17.534Z,20.05
